Etusivu
METAR-TAF:

METAR-TAF

Lentoasemat :

Nanaimo, Brittiläinen Kolumbia, Kanada

Leveyspiiri: 49-03N, Pituuspiiri: 123-52W, korkeus merenpinnasta: 28 m

Tämänhetkinen sää

Tämä raportti tehtiin 47 minuuttia sitten, kello 13.00 UTC
tyyntä
Lämpötila 10°C
Kosteus 93%
Ilmanpaine 1021 hPa
Näkyvyys: 24.1 km
selkeää

METAR: CYCD 291300Z 00000KT 15SM SKC 10/09 A3015 RMK SLP211

Aika: 06:47 (13:47 UTC)

Sääennuste

Tämä raportti tehtiin 14 tuntia ja 9 minuuttia sitten, kello 23.38 UTC
Ennuste voimassa 29. päivästä klo 00 UTC - 29. päivään klo 04 UTC
Tuuli 5 kn lännestä/luoteesta
Näkyvyys: 10 km
Muutamia pilviä 25000 ft:n korkeudessa

TAF: CYCD 282338Z 2900/2904 30005KT P6SM FEW250 RMK NXT FCST WILL BE ISSUED AT 291445Z

Säähavainnot ja -ennusteet yli 4000 lentoasemalta (METAR- ja TAF-raportit).

Käytössä olevat sääasemat on merkitty karttaan keltaisilla ja punaisilla pisteillä.

Aseta hiiri pisteen päälle nähdäksesi sääaseman nimen.

Klikkaa sitten nähdäksesi säähavainnot ja -ennusteet.

Kartan vaihtaminen: klikkaa mustalla rastilla varustettuja vihreitä pisteitä, niin voit zoomata sisään; viivalla varustettua vihreää pistettä, niin voit zoomata ulos tai vihreitä nuolia, niin pääset viereisille kartoille.


METAR-TAF: